Asheville, North Carolina
Current Conditions -  °F | °C
As of 11:10 AM on Monday 26 Jan 2015 (Local Time) from KAVL Reporting Station
Overcast Overcast  
Wind Chill: -1°   Ceiling: 4000
Heat Index:   Visibility: 10mi
Dew Point:   Wind: 17mph
Humidity: 86%   Direction: 340°NNW
Pressure: 29.7"   Gusts: NA
Location:  35.6°N, 82.55°W
Report Text: KAVL 261610Z 34015KT 10SM FEW009 BKN040 OVC080 04/02 A2970 RMK AO2 RAE05 P0000 T00440022
Loading
Personal Weather Stations






























Interactive Weather Map New forecast layout! Learn more

10-Day Weather Forecast

Advertisements
Track Severe Weather on mobile